logo dgac
Lunes 03 de Agosto del 2020
Buscar por aerodromo o helipuerto
Ingrese nombre de aeródromo, localidad o designador OACI:
TAF: TAF SCIE 031641Z 0318/0418 02008KT 9999 SCT025 SCT280 TX15/0318Z TN09/0411Z BECMG 0323/0401 VRB03KT BKN015 OVC045 TEMPO 0402/0409 01004KT 3000 -RA BKN012 OVC020 BECMG 0413/0415 34009KT BKN010
TAF del 03/08/2020 a las 16:41 UTC
Para mayor información visite www.meteochile.cl
Período de validez: desde el 03 a las 18:00 UTC hasta el 04 a las 18:00 UTC
Viento: dirección 020 grados, velocidad 8 nudos
Visibilidad: 10 km o más
Nubes: Nubosidad parcial a 2500 pies sobre el nivel del aeródromo
Nubes: Nubosidad parcial a 28000 pies sobre el nivel del aeródromo
Temperatura máxima: 15ºC el 03 a las 18:00 UTC
Temperatura mínima: 9ºC el 04 a las 11:00 UTC
Se espera un cambio entre las 23:00 UTC del 03 y las 01:00 UTC del 04, :
Viento: dirección variable, velocidad 3 nudos
Nubes: Nublado a 1500 pies sobre el nivel del aeródromo
Nubes: Cubierto a 4500 pies sobre el nivel del aeródromo
Se espera en forma temporal entre las 02:00 UTC del 04 y las 09:00 UTC del 04:
Viento: dirección 010 grados, velocidad 4 nudos
Visibilidad: 3000 metros
Débil Lluvia
Nubes: Nublado a 1200 pies sobre el nivel del aeródromo
Nubes: Cubierto a 2000 pies sobre el nivel del aeródromo
Se espera un cambio entre las 13:00 UTC del 04 y las 15:00 UTC del 04, :
Viento: dirección 340 grados, velocidad 9 nudos
Nubes: Nublado a 1000 pies sobre el nivel del aeródromo